Time;durP1;ratioP1;P1;durP2;ratioP2;P2;SDS_P1;SDS_P2;PMS_P1;PMS_P2;Temp;Humidity;BMP_temperature;BMP_pressure;BME280_temperature;BME280_humidity;BME280_pressure;Samples;Min_cycle;Max_cycle;Signal;HPM_P1;HPM_P2
2023/09/06 00:00:43;;;;;;;7.03;3.80;;;19.70;99.90;;;;;;4994429;28;20050;-56
2023/09/06 00:03:10;;;;;;;8.65;3.83;;;19.60;99.90;;;;;;4994572;28;20085;-51
2023/09/06 00:05:36;;;;;;;6.45;3.35;;;19.60;99.90;;;;;;4994354;28;20034;-46
2023/09/06 00:08:02;;;;;;;6.80;3.97;;;19.60;99.90;;;;;;4994182;28;20105;-48
2023/09/06 00:10:28;;;;;;;6.95;3.97;;;19.50;99.90;;;;;;4994336;28;20042;-47
2023/09/06 00:12:54;;;;;;;6.13;4.00;;;19.50;99.90;;;;;;4994228;28;20045;-45
2023/09/06 00:15:19;;;;;;;7.22;4.32;;;19.40;99.90;;;;;;4994235;28;20407;-48
2023/09/06 00:17:45;;;;;;;7.22;4.22;;;19.30;99.90;;;;;;4994155;28;20038;-48
2023/09/06 00:20:21;;;;;;;7.40;3.90;;;19.30;99.90;;;;;;4994040;28;20033;-47
2023/09/06 00:22:58;;;;;;;6.45;3.58;;;19.20;99.90;;;;;;4994337;28;20037;-49
2023/09/06 00:25:25;;;;;;;8.68;4.00;;;19.20;99.90;;;;;;4994161;28;20057;-46
2023/09/06 00:27:52;;;;;;;6.43;3.65;;;19.20;99.90;;;;;;4993827;28;20387;-50
2023/09/06 00:30:20;;;;;;;5.65;3.85;;;19.10;99.90;;;;;;4994052;28;20062;-49
2023/09/06 00:32:47;;;;;;;6.60;4.13;;;19.10;99.90;;;;;;4994025;28;20046;-54
2023/09/06 00:35:16;;;;;;;6.18;3.70;;;19.10;99.90;;;;;;4993853;28;20105;-47
2023/09/06 00:37:42;;;;;;;7.90;4.18;;;19.10;99.90;;;;;;4993720;28;20150;-48
2023/09/06 00:40:28;;;;;;;8.85;4.47;;;19.10;99.90;;;;;;4993693;28;20045;-49
2023/09/06 00:43:01;;;;;;;6.88;4.43;;;19.00;99.90;;;;;;4981016;28;20033;-48
2023/09/06 00:45:36;;;;;;;10.13;4.78;;;19.10;99.90;;;;;;4993837;28;20026;-46
2023/09/06 00:48:05;;;;;;;7.75;3.85;;;19.00;99.90;;;;;;4993656;28;20029;-48
2023/09/06 00:50:33;;;;;;;6.73;4.20;;;19.00;99.90;;;;;;4993575;28;20085;-46
2023/09/06 00:52:59;;;;;;;7.95;3.92;;;19.00;99.90;;;;;;4993725;28;20478;-54
2023/09/06 00:55:25;;;;;;;6.13;3.90;;;19.00;99.90;;;;;;4993683;28;20030;-48
2023/09/06 00:57:52;;;;;;;8.30;4.00;;;19.00;99.90;;;;;;4993536;28;20022;-50
2023/09/06 01:00:19;;;;;;;6.88;4.13;;;19.00;99.90;;;;;;4992955;28;20033;-46
2023/09/06 01:02:47;;;;;;;8.70;4.22;;;19.00;99.90;;;;;;4992816;28;20471;-49
2023/09/06 01:05:16;;;;;;;9.48;4.43;;;18.90;99.90;;;;;;4993411;28;20027;-53
2023/09/06 01:07:47;;;;;;;7.03;3.92;;;18.80;99.90;;;;;;4993132;28;20121;-54
2023/09/06 01:10:13;;;;;;;10.82;3.78;;;18.80;99.90;;;;;;4993242;28;20045;-50
2023/09/06 01:12:38;;;;;;;5.15;3.30;;;18.70;99.90;;;;;;4993177;28;20023;-48
2023/09/06 01:15:05;;;;;;;6.30;3.67;;;18.70;99.90;;;;;;4993089;28;20121;-45
2023/09/06 01:17:34;;;;;;;5.00;2.90;;;18.60;99.90;;;;;;4993203;28;20081;-49
2023/09/06 01:20:23;;;;;;;5.45;3.40;;;18.50;99.90;;;;;;4992879;28;20030;-45
2023/09/06 01:23:09;;;;;;;8.45;3.33;;;18.40;99.90;;;;;;4992992;28;20391;-49
2023/09/06 01:25:34;;;;;;;4.95;3.22;;;18.40;99.90;;;;;;4993064;28;20030;-45
2023/09/06 01:28:00;;;;;;;4.75;3.20;;;18.30;99.90;;;;;;4992710;28;20022;-50
2023/09/06 01:30:29;;;;;;;5.10;3.15;;;18.30;99.90;;;;;;4992786;28;20089;-48
2023/09/06 01:32:55;;;;;;;6.40;3.72;;;18.30;99.90;;;;;;4992781;28;20109;-51
2023/09/06 01:35:21;;;;;;;6.80;3.67;;;18.30;99.90;;;;;;4992532;28;20030;-46
2023/09/06 01:37:50;;;;;;;6.13;3.67;;;18.20;99.90;;;;;;4992668;28;20022;-45
2023/09/06 01:40:17;;;;;;;6.13;3.53;;;18.20;99.90;;;;;;4992826;28;20105;-45
2023/09/06 01:42:44;;;;;;;7.07;3.30;;;18.20;99.90;;;;;;4991225;28;20030;-49
2023/09/06 01:45:10;;;;;;;6.55;3.70;;;18.20;99.90;;;;;;4992623;28;20034;-45
2023/09/06 01:47:36;;;;;;;5.43;3.40;;;18.20;99.90;;;;;;4992691;28;20026;-51
2023/09/06 01:50:03;;;;;;;7.00;3.55;;;18.20;99.90;;;;;;4992419;28;20034;-48
2023/09/06 01:52:29;;;;;;;6.10;3.50;;;18.20;99.90;;;;;;4992461;28;20073;-48
2023/09/06 01:54:54;;;;;;;7.22;3.50;;;18.20;99.90;;;;;;4992425;28;20022;-47
2023/09/06 01:57:20;;;;;;;7.00;3.92;;;18.20;99.90;;;;;;4992359;28;20391;-51
2023/09/06 01:59:50;;;;;;;5.43;3.28;;;18.20;99.90;;;;;;4992388;28;20026;-45
2023/09/06 02:02:16;;;;;;;8.18;3.55;;;18.20;99.90;;;;;;4992315;28;20502;-51
2023/09/06 02:04:42;;;;;;;6.63;4.05;;;18.20;99.90;;;;;;4992068;28;20043;-49
2023/09/06 02:07:07;;;;;;;7.28;4.00;;;18.20;99.90;;;;;;4991758;28;20046;-45
2023/09/06 02:09:33;;;;;;;8.20;4.28;;;18.20;99.90;;;;;;4991933;28;20034;-51
2023/09/06 02:11:59;;;;;;;10.10;4.55;;;18.20;99.90;;;;;;4991685;28;20106;-51
2023/09/06 02:14:24;;;;;;;7.13;4.32;;;18.20;99.90;;;;;;4992012;28;20038;-45
2023/09/06 02:16:50;;;;;;;7.22;4.40;;;18.20;99.90;;;;;;4991805;28;20022;-49
2023/09/06 02:19:16;;;;;;;8.13;5.22;;;18.20;99.90;;;;;;4992190;28;20029;-50
2023/09/06 02:21:42;;;;;;;10.90;4.68;;;18.20;99.90;;;;;;4991776;28;20025;-50
2023/09/06 02:24:08;;;;;;;7.97;4.50;;;18.20;99.90;;;;;;4991940;28;20027;-46
2023/09/06 02:26:34;;;;;;;6.35;4.40;;;18.20;99.90;;;;;;4991572;28;20113;-46
2023/09/06 02:29:00;;;;;;;8.70;4.78;;;18.20;99.90;;;;;;4991587;28;20030;-45
2023/09/06 02:31:26;;;;;;;8.10;4.70;;;18.20;99.90;;;;;;4991622;28;20117;-48
2023/09/06 02:33:52;;;;;;;7.18;4.35;;;18.20;99.90;;;;;;4991545;28;20460;-45
2023/09/06 02:36:18;;;;;;;7.82;4.32;;;18.20;99.90;;;;;;4991532;28;20026;-45
2023/09/06 02:38:43;;;;;;;7.95;4.72;;;18.20;99.90;;;;;;4991152;28;20467;-46
2023/09/06 02:41:09;;;;;;;9.55;4.63;;;18.20;99.90;;;;;;4991519;28;20084;-50
2023/09/06 02:43:35;;;;;;;8.15;4.53;;;18.10;99.90;;;;;;4991548;28;20475;-45
2023/09/06 02:46:03;;;;;;;7.18;4.22;;;18.10;99.90;;;;;;4991613;28;20033;-50
2023/09/06 02:48:29;;;;;;;9.57;5.18;;;18.00;99.90;;;;;;4991608;28;20027;-47
2023/09/06 02:50:56;;;;;;;7.57;4.68;;;18.00;99.90;;;;;;4991088;28;20072;-47
2023/09/06 02:53:22;;;;;;;8.27;4.32;;;18.00;99.90;;;;;;4991257;28;20054;-46
2023/09/06 02:55:51;;;;;;;8.02;4.40;;;17.90;99.90;;;;;;4990981;28;20108;-49
2023/09/06 02:58:23;;;;;;;6.82;4.18;;;17.90;99.90;;;;;;4990982;28;20034;-43
2023/09/06 03:00:57;;;;;;;10.50;4.53;;;17.90;99.90;;;;;;4974060;28;20041;-49
2023/09/06 03:03:26;;;;;;;5.65;3.83;;;17.90;99.90;;;;;;4991086;28;20035;-53
2023/09/06 03:05:56;;;;;;;7.43;4.80;;;17.90;99.90;;;;;;4991113;28;20030;-57
2023/09/06 03:08:25;;;;;;;7.32;4.32;;;17.80;99.90;;;;;;4990608;28;20050;-49
2023/09/06 03:10:52;;;;;;;8.85;4.18;;;17.80;99.90;;;;;;4991024;28;20041;-49
2023/09/06 03:13:20;;;;;;;9.15;5.03;;;17.80;99.90;;;;;;4989754;28;20030;-51
2023/09/06 03:15:45;;;;;;;8.45;4.35;;;17.80;99.90;;;;;;4990763;28;20069;-50
2023/09/06 03:18:11;;;;;;;9.25;4.50;;;17.80;99.90;;;;;;4990800;28;20439;-55
2023/09/06 03:20:44;;;;;;;6.93;4.30;;;17.80;99.90;;;;;;4990677;28;20545;-49
2023/09/06 03:23:18;;;;;;;6.57;3.90;;;17.80;99.90;;;;;;4990758;28;20033;-49
2023/09/06 03:25:48;;;;;;;7.88;4.35;;;17.80;99.90;;;;;;4990489;28;20107;-49
2023/09/06 03:28:15;;;;;;;5.55;3.75;;;17.70;99.90;;;;;;4989407;28;20026;-49
2023/09/06 03:30:41;;;;;;;7.25;3.90;;;17.80;99.90;;;;;;4990760;28;20061;-51
2023/09/06 03:33:08;;;;;;;6.72;4.20;;;17.80;99.90;;;;;;4990696;28;20027;-45
2023/09/06 03:35:34;;;;;;;6.65;4.30;;;17.70;99.90;;;;;;4990204;28;20022;-46
2023/09/06 03:38:00;;;;;;;7.32;4.13;;;17.70;99.90;;;;;;4990924;28;20110;-51
2023/09/06 03:40:34;;;;;;;6.28;4.40;;;17.80;99.90;;;;;;4990788;28;20381;-49
2023/09/06 03:43:04;;;;;;;6.47;4.32;;;17.80;99.90;;;;;;4990757;28;20038;-50
2023/09/06 03:45:30;;;;;;;;;;;17.80;99.90;;;;;;4991071;28;20026;-48
2023/09/06 03:47:56;;;;;;;9.30;4.38;;;17.80;99.90;;;;;;4990815;28;19996;-50
2023/09/06 03:50:23;;;;;;;8.10;4.47;;;17.70;99.90;;;;;;4990442;28;20122;-46
2023/09/06 03:52:50;;;;;;;7.90;4.15;;;17.70;99.90;;;;;;4990649;28;20026;-45
2023/09/06 03:55:17;;;;;;;6.55;4.30;;;17.60;99.90;;;;;;4990719;28;20506;-50
2023/09/06 03:57:43;;;;;;;6.85;4.13;;;17.60;99.90;;;;;;4990515;28;20116;-48
2023/09/06 04:00:31;;;;;;;6.13;4.20;;;17.60;99.90;;;;;;4990574;28;20031;-48
2023/09/06 04:02:57;;;;;;;7.38;4.63;;;17.50;99.90;;;;;;4990821;28;20376;-51
2023/09/06 04:05:25;;;;;;;8.00;4.85;;;17.60;99.90;;;;;;4990670;28;20161;-48
2023/09/06 04:07:58;;;;;;;8.03;4.30;;;17.60;99.90;;;;;;4990407;28;20061;-46
2023/09/06 04:10:27;;;;;;;7.70;4.88;;;17.60;99.90;;;;;;4990445;28;20303;-57
2023/09/06 04:12:55;;;;;;;9.73;5.15;;;17.60;99.90;;;;;;4990233;28;20602;-50
2023/09/06 04:15:21;;;;;;;10.63;5.03;;;17.60;99.90;;;;;;4990498;28;20058;-55
2023/09/06 04:17:59;;;;;;;9.18;4.80;;;17.70;99.90;;;;;;4990349;28;20340;-49
2023/09/06 04:20:35;;;;;;;7.78;4.60;;;17.60;99.90;;;;;;4990575;28;20023;-48
2023/09/06 04:23:01;;;;;;;8.43;5.00;;;17.60;99.90;;;;;;4990207;28;20022;-48
2023/09/06 04:25:28;;;;;;;9.20;5.50;;;17.60;99.90;;;;;;4990355;28;20042;-45
2023/09/06 04:27:54;;;;;;;10.00;5.18;;;17.60;99.90;;;;;;4990492;28;20033;-47
2023/09/06 04:30:28;;;;;;;9.68;5.68;;;17.60;99.90;;;;;;4990401;28;20117;-49
2023/09/06 04:32:54;;;;;;;10.68;5.22;;;17.60;99.90;;;;;;4990357;28;20027;-54
2023/09/06 04:35:22;;;;;;;11.60;6.13;;;17.60;99.90;;;;;;4991058;28;20026;-52
2023/09/06 04:37:48;;;;;;;8.65;5.68;;;17.50;99.90;;;;;;4993768;28;20477;-52
2023/09/06 04:40:14;;;;;;;8.70;4.35;;;17.50;99.90;;;;;;4993608;28;20049;-53
2023/09/06 04:42:41;;;;;;;6.28;4.07;;;17.50;99.90;;;;;;4993530;28;20426;-51
2023/09/06 04:45:11;;;;;;;7.30;4.03;;;17.40;99.90;;;;;;4993242;28;20034;-47
2023/09/06 04:47:39;;;;;;;8.10;4.50;;;17.30;99.90;;;;;;4993575;28;20034;-49
2023/09/06 04:50:06;;;;;;;7.50;4.63;;;17.20;99.90;;;;;;4993271;28;20121;-47
2023/09/06 04:52:36;;;;;;;7.95;4.72;;;17.20;99.90;;;;;;4993463;28;20279;-55
2023/09/06 04:55:02;;;;;;;7.68;4.40;;;17.10;99.90;;;;;;4993547;28;20034;-45
2023/09/06 04:57:28;;;;;;;7.60;4.60;;;17.10;99.90;;;;;;4993499;28;20758;-50
2023/09/06 04:59:53;;;;;;;6.00;3.90;;;17.10;99.90;;;;;;4993488;28;20026;-45
2023/09/06 05:02:19;;;;;;;7.57;4.47;;;17.20;99.90;;;;;;4993311;28;20022;-53
2023/09/06 05:04:45;;;;;;;8.35;4.40;;;17.30;99.90;;;;;;4993177;28;20135;-48
2023/09/06 05:07:11;;;;;;;7.88;4.55;;;17.30;99.90;;;;;;4993077;28;20030;-49
2023/09/06 05:09:37;;;;;;;6.70;4.18;;;17.30;99.90;;;;;;4993311;28;20487;-48
2023/09/06 05:12:03;;;;;;;8.40;4.38;;;17.30;99.90;;;;;;4993234;28;20033;-49
2023/09/06 05:14:29;;;;;;;5.75;3.78;;;17.30;99.90;;;;;;4993147;28;20026;-50
2023/09/06 05:16:55;;;;;;;7.60;3.92;;;17.20;99.90;;;;;;4993165;28;20018;-48
2023/09/06 05:19:25;;;;;;;6.07;4.05;;;17.20;99.90;;;;;;4992990;28;20092;-46
2023/09/06 05:21:51;;;;;;;8.05;5.15;;;17.20;99.90;;;;;;4992801;28;20034;-45
2023/09/06 05:24:19;;;;;;;7.63;4.70;;;17.30;99.90;;;;;;4993280;28;20172;-45
2023/09/06 05:26:45;;;;;;;10.45;4.90;;;17.30;99.90;;;;;;4992868;28;20015;-50
2023/09/06 05:29:10;;;;;;;8.60;4.78;;;17.30;99.90;;;;;;4992888;28;20034;-44
2023/09/06 05:31:36;;;;;;;7.47;4.72;;;17.30;99.90;;;;;;4992753;28;20042;-48
2023/09/06 05:34:02;;;;;;;8.05;4.80;;;17.20;99.90;;;;;;4992830;28;20029;-53
2023/09/06 05:36:28;;;;;;;9.32;4.53;;;17.20;99.90;;;;;;4992641;28;20030;-50
2023/09/06 05:38:53;;;;;;;9.52;5.57;;;17.10;99.90;;;;;;4992476;28;20022;-48
2023/09/06 05:41:19;;;;;;;8.13;4.95;;;17.10;99.90;;;;;;4992506;28;20080;-51
2023/09/06 05:43:46;;;;;;;6.70;4.40;;;17.10;99.90;;;;;;4992436;28;20037;-51
2023/09/06 05:46:11;;;;;;;7.40;4.90;;;17.10;99.90;;;;;;4992440;28;20554;-52
2023/09/06 05:48:38;;;;;;;9.85;5.75;;;17.10;99.90;;;;;;4991579;28;20090;-48
2023/09/06 05:51:03;;;;;;;8.52;4.93;;;17.20;99.90;;;;;;4992766;28;20438;-50
2023/09/06 05:53:29;;;;;;;8.10;4.45;;;17.20;99.90;;;;;;4992361;28;20463;-52
2023/09/06 05:55:57;;;;;;;9.45;4.85;;;17.30;99.90;;;;;;4992590;28;20361;-49
2023/09/06 05:58:25;;;;;;;9.52;4.63;;;17.20;99.90;;;;;;4992406;28;20034;-51
2023/09/06 06:00:53;;;;;;;7.68;4.78;;;17.20;99.90;;;;;;4992223;28;20027;-51
2023/09/06 06:03:19;;;;;;;11.98;4.93;;;17.10;99.90;;;;;;4992220;28;20026;-45
2023/09/06 06:05:45;;;;;;;7.25;4.72;;;17.10;99.90;;;;;;4992147;28;20436;-53
2023/09/06 06:08:11;;;;;;;9.40;5.25;;;17.20;99.90;;;;;;4991924;28;20085;-45
2023/09/06 06:10:37;;;;;;;7.97;4.90;;;17.20;99.90;;;;;;4991736;28;20053;-44
2023/09/06 06:13:04;;;;;;;9.32;4.82;;;17.30;99.90;;;;;;4992070;28;20030;-44
2023/09/06 06:15:31;;;;;;;8.20;4.50;;;17.40;99.90;;;;;;4991878;28;20054;-45
2023/09/06 06:17:57;;;;;;;7.25;4.10;;;17.60;99.90;;;;;;4992061;28;20081;-47
2023/09/06 06:20:22;;;;;;;6.97;4.00;;;17.60;99.90;;;;;;4992064;28;20444;-47
2023/09/06 06:22:48;;;;;;;7.95;4.13;;;17.70;99.90;;;;;;4990204;28;20022;-49
2023/09/06 06:25:13;;;;;;;6.70;4.00;;;17.80;99.90;;;;;;4991942;28;20031;-44
2023/09/06 06:27:39;;;;;;;6.63;4.22;;;17.90;99.90;;;;;;4991802;28;20026;-50
2023/09/06 06:30:06;;;;;;;6.68;3.85;;;18.00;99.90;;;;;;4991617;28;20089;-50
2023/09/06 06:32:32;;;;;;;8.23;4.32;;;18.10;99.90;;;;;;4991604;28;20414;-47
2023/09/06 06:35:01;;;;;;;8.18;4.93;;;18.30;99.90;;;;;;4991631;28;20034;-47
2023/09/06 06:37:27;;;;;;;7.20;4.75;;;18.30;99.90;;;;;;4991915;28;20073;-53
2023/09/06 06:39:54;;;;;;;7.30;5.07;;;18.40;99.90;;;;;;4991402;28;20034;-47
2023/09/06 06:42:20;;;;;;;11.77;4.78;;;18.60;99.90;;;;;;4991563;28;20546;-46
2023/09/06 06:44:46;;;;;;;7.95;5.35;;;18.70;99.90;;;;;;4991548;28;20030;-52
2023/09/06 06:47:12;;;;;;;10.70;5.93;;;18.80;99.90;;;;;;4990042;28;20125;-49
2023/09/06 06:49:38;;;;;;;12.38;6.45;;;18.90;99.90;;;;;;4991599;28;20130;-45
2023/09/06 06:52:04;;;;;;;10.13;6.63;;;19.10;99.90;;;;;;4991510;28;20015;-44
2023/09/06 06:54:29;;;;;;;10.52;4.85;;;19.30;99.90;;;;;;4991546;28;20034;-46
2023/09/06 06:56:55;;;;;;;9.75;4.65;;;19.40;99.90;;;;;;4991176;28;20026;-48
2023/09/06 06:59:20;;;;;;;9.60;5.45;;;19.50;99.90;;;;;;4990446;28;20036;-50
2023/09/06 07:01:47;;;;;;;10.68;5.28;;;19.70;99.90;;;;;;4991267;28;20105;-48
2023/09/06 07:04:13;;;;;;;6.93;5.07;;;19.90;99.90;;;;;;4991275;28;20105;-50
2023/09/06 07:06:39;;;;;;;7.60;3.90;;;20.10;99.90;;;;;;4990988;28;20105;-53
2023/09/06 07:09:05;;;;;;;9.10;5.10;;;20.30;99.90;;;;;;4990892;28;20034;-52
2023/09/06 07:11:31;;;;;;;7.00;4.50;;;20.40;99.90;;;;;;4990600;28;20034;-47
2023/09/06 07:13:57;;;;;;;7.90;4.43;;;20.50;99.90;;;;;;4990754;28;20512;-53
2023/09/06 07:16:22;;;;;;;10.95;5.28;;;20.70;99.90;;;;;;4991117;28;20076;-48
2023/09/06 07:18:49;;;;;;;8.35;5.10;;;20.90;99.90;;;;;;4990944;28;20026;-49
2023/09/06 07:21:16;;;;;;;8.45;4.68;;;21.10;99.90;;;;;;4990803;28;20050;-47
2023/09/06 07:23:42;;;;;;;6.65;4.63;;;21.30;99.90;;;;;;4990768;28;20085;-46
2023/09/06 07:26:08;;;;;;;8.73;4.75;;;21.60;99.90;;;;;;4991137;28;20026;-50
2023/09/06 07:28:38;;;;;;;9.95;4.95;;;21.80;99.90;;;;;;4990497;28;20073;-44
2023/09/06 07:31:04;;;;;;;9.32;5.70;;;21.90;99.90;;;;;;4990907;28;20049;-54
2023/09/06 07:33:30;;;;;;;10.55;5.95;;;22.10;99.90;;;;;;4990840;28;20018;-51
2023/09/06 07:35:56;;;;;;;9.40;5.30;;;22.40;99.90;;;;;;4990875;28;20036;-45
2023/09/06 07:38:22;;;;;;;8.65;5.78;;;22.60;99.90;;;;;;4990748;28;20022;-53
2023/09/06 07:40:55;;;;;;;9.55;5.43;;;22.80;99.90;;;;;;4990675;28;20022;-48
2023/09/06 07:43:20;;;;;;;12.27;6.40;;;23.00;99.90;;;;;;4990442;28;20121;-44
2023/09/06 07:45:46;;;;;;;11.10;6.45;;;23.20;99.90;;;;;;4990692;28;20098;-51
2023/09/06 07:48:11;;;;;;;12.70;6.68;;;23.40;99.90;;;;;;4990829;28;20038;-48
2023/09/06 07:50:37;;;;;;;10.40;6.18;;;23.50;99.90;;;;;;4990540;28;20509;-53
2023/09/06 07:53:03;;;;;;;11.65;5.85;;;23.80;99.90;;;;;;4990544;28;20023;-49
2023/09/06 07:55:28;;;;;;;10.20;6.15;;;23.90;99.90;;;;;;4990481;28;20116;-51
2023/09/06 07:57:54;;;;;;;9.90;5.78;;;24.20;99.90;;;;;;4990582;28;20157;-50
2023/09/06 08:00:20;;;;;;;8.70;5.80;;;24.50;99.90;;;;;;4990528;28;20057;-52
2023/09/06 08:02:45;;;;;;;13.18;6.78;;;24.70;99.90;;;;;;4990625;28;20108;-45
2023/09/06 08:05:11;;;;;;;11.70;5.97;;;24.80;99.90;;;;;;4990790;28;20074;-48
2023/09/06 08:07:37;;;;;;;9.45;6.22;;;24.90;99.90;;;;;;4990359;28;20045;-44
2023/09/06 08:10:08;;;;;;;9.25;6.03;;;25.10;99.90;;;;;;4991006;28;20045;-53
2023/09/06 08:12:35;;;;;;;9.82;5.47;;;25.50;99.90;;;;;;4994066;28;20385;-46
2023/09/06 08:15:01;;;;;;;7.97;5.13;;;25.70;99.90;;;;;;4992966;28;20439;-55
2023/09/06 08:17:27;;;;;;;8.80;4.70;;;26.00;99.90;;;;;;4994108;28;20018;-49
2023/09/06 08:19:52;;;;;;;7.80;5.47;;;26.20;99.90;;;;;;4994448;28;20053;-51
2023/09/06 08:22:18;;;;;;;8.07;5.07;;;26.30;99.90;;;;;;4994050;28;20105;-46
2023/09/06 08:24:44;;;;;;;7.38;5.07;;;26.40;99.90;;;;;;4994000;28;20023;-48
2023/09/06 08:27:09;;;;;;;8.18;4.90;;;26.70;99.90;;;;;;4992817;28;20045;-47
2023/09/06 08:29:35;;;;;;;8.27;4.85;;;27.00;99.90;;;;;;4993730;28;20113;-50
2023/09/06 08:32:01;;;;;;;6.63;4.88;;;27.20;99.90;;;;;;4993645;28;20027;-48
2023/09/06 08:34:26;;;;;;;8.40;5.05;;;27.20;99.90;;;;;;4993845;28;20034;-48
2023/09/06 08:36:52;;;;;;;7.88;5.00;;;27.40;99.90;;;;;;4992881;28;20117;-51
2023/09/06 08:39:17;;;;;;;9.25;5.20;;;27.40;99.90;;;;;;4993598;28;20569;-50
2023/09/06 08:41:48;;;;;;;6.40;4.20;;;27.60;99.90;;;;;;4993759;28;20050;-48
2023/09/06 08:44:23;;;;;;;8.05;5.57;;;27.80;99.90;;;;;;4993674;28;20030;-49
2023/09/06 08:46:52;;;;;;;6.72;4.68;;;28.00;99.90;;;;;;4993783;28;20037;-46
2023/09/06 08:49:20;;;;;;;7.35;4.45;;;28.30;99.90;;;;;;4993465;28;20069;-53
2023/09/06 08:51:47;;;;;;;6.80;3.97;;;28.50;99.90;;;;;;4993515;28;20024;-49
2023/09/06 08:54:14;;;;;;;6.72;4.40;;;28.70;99.90;;;;;;4993513;28;20030;-52
2023/09/06 08:56:39;;;;;;;8.18;4.97;;;29.00;99.90;;;;;;4993528;28;20360;-45
2023/09/06 08:59:05;;;;;;;7.53;4.45;;;29.20;99.90;;;;;;4993517;28;20026;-45
2023/09/06 09:01:31;;;;;;;6.90;4.10;;;29.30;99.90;;;;;;4992888;28;20070;-54
2023/09/06 09:03:57;;;;;;;6.10;4.30;;;29.50;99.90;;;;;;4993334;28;20526;-52
2023/09/06 09:06:22;;;;;;;7.03;4.25;;;29.50;99.90;;;;;;4993207;28;20031;-50
2023/09/06 09:08:48;;;;;;;7.72;4.88;;;29.60;99.90;;;;;;4992914;28;20384;-52
2023/09/06 09:11:15;;;;;;;7.93;5.05;;;29.90;99.90;;;;;;4993306;28;20038;-54
2023/09/06 09:13:42;;;;;;;7.95;4.13;;;30.10;99.90;;;;;;4993143;28;20514;-45
2023/09/06 09:16:13;;;;;;;10.02;5.80;;;30.10;99.90;;;;;;4993102;28;20396;-50
2023/09/06 09:18:43;;;;;;;7.82;5.22;;;30.30;99.90;;;;;;4993055;28;20019;-49
2023/09/06 09:21:10;;;;;;;9.93;5.72;;;30.40;99.90;;;;;;4992645;28;20030;-52
2023/09/06 09:23:44;;;;;;;9.02;5.25;;;30.30;99.90;;;;;;4992382;28;20021;-53
2023/09/06 09:26:10;;;;;;;8.93;5.30;;;30.50;99.90;;;;;;4993047;28;20503;-54
2023/09/06 09:28:37;;;;;;;7.97;5.70;;;30.60;99.90;;;;;;4975338;28;20022;-53
2023/09/06 09:31:02;;;;;;;7.43;5.05;;;30.80;99.90;;;;;;4993071;28;20031;-52
2023/09/06 09:33:29;;;;;;;8.52;5.20;;;31.10;99.90;;;;;;4991995;28;20025;-46
2023/09/06 09:35:56;;;;;;;12.80;6.20;;;31.30;99.90;;;;;;4992523;28;20050;-47
2023/09/06 09:38:21;;;;;;;6.95;4.40;;;31.40;99.90;;;;;;4992102;28;20030;-48
2023/09/06 09:41:05;;;;;;;8.52;5.18;;;31.70;99.90;;;;;;4992476;28;20084;-49
2023/09/06 09:43:30;;;;;;;5.85;4.38;;;31.70;99.90;;;;;;4992675;28;20029;-45
2023/09/06 09:45:57;;;;;;;6.90;4.32;;;31.90;99.90;;;;;;4992571;28;20027;-46
2023/09/06 09:48:30;;;;;;;5.45;3.92;;;31.90;99.90;;;;;;4992262;28;20097;-45
2023/09/06 09:50:57;;;;;;;7.05;4.57;;;32.20;99.90;;;;;;4992348;28;20065;-45
2023/09/06 09:53:24;;;;;;;10.43;5.40;;;32.10;99.90;;;;;;4992762;28;20069;-52
2023/09/06 09:55:52;;;;;;;6.28;4.03;;;32.30;99.90;;;;;;4983408;28;20092;-53
2023/09/06 09:58:19;;;;;;;;;;;32.40;99.90;;;;;;4992671;28;20369;-50
2023/09/06 10:00:45;;;;;;;8.25;4.03;;;32.50;99.90;;;;;;4992175;28;19909;-48
2023/09/06 10:03:13;;;;;;;5.97;3.97;;;32.70;99.90;;;;;;4992475;28;20075;-50
2023/09/06 10:05:41;;;;;;;6.68;4.32;;;32.80;99.90;;;;;;4992146;28;20490;-45
2023/09/06 10:08:09;;;;;;;6.35;4.15;;;32.90;99.90;;;;;;4991905;28;20061;-48
2023/09/06 10:10:37;;;;;;;6.47;3.88;;;32.90;99.90;;;;;;4992138;28;20034;-51
2023/09/06 10:13:07;;;;;;;;;;;33.20;99.90;;;;;;4992550;28;20022;-49
2023/09/06 10:15:37;;;;;;;5.28;3.65;;;33.30;99.90;;;;;;4991991;28;19916;-46
2023/09/06 10:18:04;;;;;;;5.28;3.53;;;33.60;99.90;;;;;;4991899;28;20022;-50
2023/09/06 10:20:32;;;;;;;5.38;3.20;;;33.60;99.90;;;;;;4992032;28;20030;-51
2023/09/06 10:22:59;;;;;;;6.97;3.45;;;33.60;99.90;;;;;;4991554;28;20427;-54
2023/09/06 10:25:25;;;;;;;4.25;3.20;;;33.70;99.90;;;;;;4992111;28;20113;-51
2023/09/06 10:28:01;;;;;;;5.32;3.40;;;33.90;99.90;;;;;;4991599;28;20566;-53
2023/09/06 10:30:34;;;;;;;4.80;3.33;;;33.80;99.90;;;;;;4991887;28;20488;-47
2023/09/06 10:33:02;;;;;;;5.13;3.25;;;33.70;99.10;;;;;;4991632;28;20093;-49
2023/09/06 10:35:31;;;;;;;5.57;3.42;;;33.70;98.90;;;;;;4991978;28;20027;-56
2023/09/06 10:38:27;;;;;;;4.90;3.25;;;33.90;99.90;;;;;;4991632;28;20030;-54
2023/09/06 10:40:55;;;;;;;5.32;3.10;;;34.10;99.10;;;;;;4979217;28;20038;-50
2023/09/06 10:44:00;;;;;;;4.18;2.45;;;34.00;98.30;;;;;;4991476;28;20646;-45
2023/09/06 10:46:33;;;;;;;6.00;2.90;;;34.00;98.80;;;;;;4991398;28;20022;-44
2023/09/06 10:49:25;;;;;;;5.18;2.80;;;34.00;98.80;;;;;;4991326;28;20399;-49
2023/09/06 10:52:08;;;;;;;4.63;2.85;;;34.10;99.10;;;;;;4991334;28;20483;-44
2023/09/06 10:54:43;;;;;;;4.93;3.00;;;33.90;98.90;;;;;;4991459;28;20050;-45
2023/09/06 10:57:13;;;;;;;5.30;2.65;;;34.20;98.50;;;;;;4991290;28;20515;-50
2023/09/06 10:59:42;;;;;;;4.57;2.90;;;34.30;98.60;;;;;;4991474;28;20041;-53
2023/09/06 11:02:12;;;;;;;4.00;2.45;;;33.70;97.70;;;;;;4990770;28;20029;-52
2023/09/06 11:04:37;;;;;;;3.70;2.80;;;33.80;98.60;;;;;;4991338;28;20030;-56
2023/09/06 11:07:09;;;;;;;6.85;2.78;;;33.80;99.00;;;;;;4990672;28;20084;-52
2023/09/06 11:09:43;;;;;;;3.72;2.50;;;33.90;98.70;;;;;;4990933;28;20142;-48
2023/09/06 11:12:13;;;;;;;3.42;2.35;;;33.70;97.40;;;;;;4990693;28;20114;-45
2023/09/06 11:14:41;;;;;;;4.25;2.60;;;33.50;98.40;;;;;;4991119;28;20026;-51
2023/09/06 11:17:07;;;;;;;5.43;2.53;;;33.70;98.60;;;;;;4991115;28;20114;-49
2023/09/06 11:19:35;;;;;;;3.22;2.35;;;33.90;97.70;;;;;;4990869;28;20122;-49
2023/09/06 11:22:09;;;;;;;3.22;1.92;;;34.10;97.30;;;;;;4990695;28;20065;-44
2023/09/06 11:24:36;;;;;;;4.25;2.40;;;34.30;98.70;;;;;;4990902;28;20062;-50
2023/09/06 11:27:19;;;;;;;3.72;2.22;;;34.50;97.90;;;;;;4990791;28;20030;-47
2023/09/06 11:29:47;;;;;;;3.85;2.42;;;34.70;97.80;;;;;;4990699;28;20038;-47
2023/09/06 11:32:13;;;;;;;3.40;2.40;;;34.60;96.30;;;;;;4990864;28;20101;-50
2023/09/06 11:34:44;;;;;;;5.50;2.70;;;34.30;97.20;;;;;;4990628;28;20272;-44
2023/09/06 11:37:12;;;;;;;4.75;2.38;;;34.20;95.70;;;;;;4989181;28;20019;-55
2023/09/06 11:39:40;;;;;;;3.78;2.00;;;34.20;96.60;;;;;;4991030;28;20026;-45
2023/09/06 11:42:15;;;;;;;3.95;2.17;;;34.30;98.60;;;;;;4990748;28;20506;-51
2023/09/06 11:44:50;;;;;;;3.17;2.10;;;34.50;97.00;;;;;;4989499;28;20035;-49
2023/09/06 11:47:23;;;;;;;4.00;2.38;;;34.30;97.10;;;;;;4994726;28;20506;-51
2023/09/06 11:49:49;;;;;;;4.15;2.25;;;34.30;96.10;;;;;;4994416;28;20057;-44
2023/09/06 11:52:18;;;;;;;3.40;1.92;;;34.00;96.00;;;;;;4994643;28;20081;-52
2023/09/06 11:54:49;;;;;;;5.72;2.67;;;34.10;96.00;;;;;;4994253;28;20057;-49
2023/09/06 11:57:27;;;;;;;4.25;2.08;;;34.00;95.70;;;;;;4992884;28;20022;-44
2023/09/06 11:59:57;;;;;;;3.63;2.03;;;33.80;96.30;;;;;;4992238;28;20022;-48
2023/09/06 12:02:26;;;;;;;3.08;2.03;;;33.90;96.40;;;;;;4991551;28;20041;-50
2023/09/06 12:05:00;;;;;;;3.83;2.42;;;34.00;96.40;;;;;;4983180;28;20030;-45
2023/09/06 12:07:27;;;;;;;5.53;2.13;;;34.00;95.40;;;;;;4990798;28;20404;-55
2023/09/06 12:09:56;;;;;;;3.47;2.05;;;34.20;95.80;;;;;;4993783;28;20038;-52
2023/09/06 12:12:21;;;;;;;3.50;2.08;;;34.10;96.30;;;;;;4993387;28;20026;-48
2023/09/06 12:14:47;;;;;;;3.78;2.35;;;34.20;96.80;;;;;;4982178;28;20030;-51
2023/09/06 12:17:14;;;;;;;3.75;2.45;;;34.30;95.80;;;;;;4987086;28;20023;-50
2023/09/06 12:19:39;;;;;;;5.35;2.10;;;34.20;95.60;;;;;;4992722;28;20026;-54
2023/09/06 12:22:05;;;;;;;3.65;2.10;;;34.30;95.60;;;;;;4990343;28;20052;-47
2023/09/06 12:24:33;;;;;;;4.50;2.35;;;34.20;95.70;;;;;;4993663;28;20073;-49
2023/09/06 12:26:58;;;;;;;4.13;2.38;;;34.30;94.90;;;;;;4994202;28;20031;-56
2023/09/06 12:29:24;;;;;;;3.03;2.20;;;34.20;95.50;;;;;;4993556;28;20034;-51
2023/09/06 12:31:51;;;;;;;11.30;3.35;;;34.20;95.70;;;;;;4993831;28;20030;-51
2023/09/06 12:34:16;;;;;;;3.72;2.00;;;33.90;95.50;;;;;;4993620;28;20031;-47
2023/09/06 12:36:42;;;;;;;4.65;2.65;;;33.90;94.30;;;;;;4993644;28;20084;-52
2023/09/06 12:39:08;;;;;;;3.83;2.20;;;33.80;95.90;;;;;;4993842;28;20561;-47
2023/09/06 12:41:33;;;;;;;6.20;2.45;;;33.80;95.90;;;;;;4993797;28;20390;-45
2023/09/06 12:43:59;;;;;;;3.60;2.08;;;33.90;95.40;;;;;;4994080;28;20019;-44
2023/09/06 12:46:25;;;;;;;3.13;2.10;;;34.00;95.90;;;;;;4993546;28;20547;-45
2023/09/06 12:48:50;;;;;;;4.40;2.25;;;34.10;96.60;;;;;;4993598;28;20022;-44